sensor_id;sensor_type;location;lat;lon;timestamp;temperature;humidity
27376;DHT22;14844;51.302;6.354;2023-05-07T00:00:16;14.40;99.90
27376;DHT22;14844;51.302;6.354;2023-05-07T00:02:44;14.40;99.90
27376;DHT22;14844;51.302;6.354;2023-05-07T00:05:09;14.40;99.90
27376;DHT22;14844;51.302;6.354;2023-05-07T00:07:35;14.40;99.90
27376;DHT22;14844;51.302;6.354;2023-05-07T00:10:01;14.30;99.90
27376;DHT22;14844;51.302;6.354;2023-05-07T00:12:26;14.20;99.90
27376;DHT22;14844;51.302;6.354;2023-05-07T00:14:52;14.20;99.90
27376;DHT22;14844;51.302;6.354;2023-05-07T00:17:17;14.10;99.90
27376;DHT22;14844;51.302;6.354;2023-05-07T00:19:42;14.10;99.90
27376;DHT22;14844;51.302;6.354;2023-05-07T00:22:08;14.10;99.90
27376;DHT22;14844;51.302;6.354;2023-05-07T00:24:33;14.00;99.90
27376;DHT22;14844;51.302;6.354;2023-05-07T00:26:59;14.00;99.90
27376;DHT22;14844;51.302;6.354;2023-05-07T00:29:25;14.00;99.90
27376;DHT22;14844;51.302;6.354;2023-05-07T00:31:51;14.00;99.90
27376;DHT22;14844;51.302;6.354;2023-05-07T00:34:16;14.00;99.90
27376;DHT22;14844;51.302;6.354;2023-05-07T00:36:42;14.00;99.90
27376;DHT22;14844;51.302;6.354;2023-05-07T00:39:07;14.00;99.90
27376;DHT22;14844;51.302;6.354;2023-05-07T00:41:33;13.90;99.90
27376;DHT22;14844;51.302;6.354;2023-05-07T00:43:58;13.80;99.90
27376;DHT22;14844;51.302;6.354;2023-05-07T00:46:23;13.80;99.90
27376;DHT22;14844;51.302;6.354;2023-05-07T00:48:52;13.80;99.90
27376;DHT22;14844;51.302;6.354;2023-05-07T00:51:18;13.70;99.90
27376;DHT22;14844;51.302;6.354;2023-05-07T00:53:45;13.70;99.90
27376;DHT22;14844;51.302;6.354;2023-05-07T00:56:10;13.60;99.90
27376;DHT22;14844;51.302;6.354;2023-05-07T00:58:36;13.60;99.90
27376;DHT22;14844;51.302;6.354;2023-05-07T01:01:02;13.50;99.90
27376;DHT22;14844;51.302;6.354;2023-05-07T01:03:27;13.50;99.90
27376;DHT22;14844;51.302;6.354;2023-05-07T01:05:53;13.50;99.90
27376;DHT22;14844;51.302;6.354;2023-05-07T01:08:19;13.40;99.90
27376;DHT22;14844;51.302;6.354;2023-05-07T01:10:45;13.50;99.90
27376;DHT22;14844;51.302;6.354;2023-05-07T01:13:11;13.60;99.90
27376;DHT22;14844;51.302;6.354;2023-05-07T01:15:37;13.80;99.90
27376;DHT22;14844;51.302;6.354;2023-05-07T01:18:03;13.70;99.90
27376;DHT22;14844;51.302;6.354;2023-05-07T01:20:28;13.70;99.90
27376;DHT22;14844;51.302;6.354;2023-05-07T01:22:54;13.70;99.90
27376;DHT22;14844;51.302;6.354;2023-05-07T01:25:21;13.70;99.90
27376;DHT22;14844;51.302;6.354;2023-05-07T01:27:47;13.70;99.90
27376;DHT22;14844;51.302;6.354;2023-05-07T01:30:13;13.70;99.90
27376;DHT22;14844;51.302;6.354;2023-05-07T01:35:07;14.00;99.90
27376;DHT22;14844;51.302;6.354;2023-05-07T01:37:35;14.10;99.90
27376;DHT22;14844;51.302;6.354;2023-05-07T01:40:01;14.10;99.90
27376;DHT22;14844;51.302;6.354;2023-05-07T01:42:26;14.10;99.90
27376;DHT22;14844;51.302;6.354;2023-05-07T01:44:52;14.10;99.90
27376;DHT22;14844;51.302;6.354;2023-05-07T01:47:17;14.00;99.90
27376;DHT22;14844;51.302;6.354;2023-05-07T01:49:44;14.00;99.90
27376;DHT22;14844;51.302;6.354;2023-05-07T01:52:10;13.90;99.90
27376;DHT22;14844;51.302;6.354;2023-05-07T01:54:35;13.80;99.90
27376;DHT22;14844;51.302;6.354;2023-05-07T01:57:01;13.80;99.90
27376;DHT22;14844;51.302;6.354;2023-05-07T01:59:26;13.80;99.90
27376;DHT22;14844;51.302;6.354;2023-05-07T02:01:52;13.80;99.90
27376;DHT22;14844;51.302;6.354;2023-05-07T02:04:17;13.80;99.90
27376;DHT22;14844;51.302;6.354;2023-05-07T02:06:43;13.70;99.90
27376;DHT22;14844;51.302;6.354;2023-05-07T02:09:08;13.70;99.90
27376;DHT22;14844;51.302;6.354;2023-05-07T02:11:34;13.60;99.90
27376;DHT22;14844;51.302;6.354;2023-05-07T02:13:59;13.60;99.90
27376;DHT22;14844;51.302;6.354;2023-05-07T02:16:25;13.60;99.90
27376;DHT22;14844;51.302;6.354;2023-05-07T02:18:50;13.50;99.90
27376;DHT22;14844;51.302;6.354;2023-05-07T02:21:16;13.50;99.90
27376;DHT22;14844;51.302;6.354;2023-05-07T02:23:41;13.50;99.90
27376;DHT22;14844;51.302;6.354;2023-05-07T02:26:07;13.50;99.90
27376;DHT22;14844;51.302;6.354;2023-05-07T02:28:32;13.60;99.90
27376;DHT22;14844;51.302;6.354;2023-05-07T02:31:02;13.60;99.90
27376;DHT22;14844;51.302;6.354;2023-05-07T02:33:27;13.50;99.90
27376;DHT22;14844;51.302;6.354;2023-05-07T02:35:53;13.40;99.90
27376;DHT22;14844;51.302;6.354;2023-05-07T02:38:18;13.40;99.90
27376;DHT22;14844;51.302;6.354;2023-05-07T02:40:44;13.30;99.90
27376;DHT22;14844;51.302;6.354;2023-05-07T02:43:09;13.20;99.90
27376;DHT22;14844;51.302;6.354;2023-05-07T02:45:35;13.30;99.90
27376;DHT22;14844;51.302;6.354;2023-05-07T02:48:01;13.20;99.90
27376;DHT22;14844;51.302;6.354;2023-05-07T02:50:26;13.10;99.90
27376;DHT22;14844;51.302;6.354;2023-05-07T02:52:52;13.10;99.90
27376;DHT22;14844;51.302;6.354;2023-05-07T02:55:17;13.00;99.90
27376;DHT22;14844;51.302;6.354;2023-05-07T02:57:43;13.10;99.90
27376;DHT22;14844;51.302;6.354;2023-05-07T03:02:38;13.10;99.90
27376;DHT22;14844;51.302;6.354;2023-05-07T03:05:03;13.10;99.90
27376;DHT22;14844;51.302;6.354;2023-05-07T03:07:29;13.10;99.90
27376;DHT22;14844;51.302;6.354;2023-05-07T03:09:54;13.10;99.90
27376;DHT22;14844;51.302;6.354;2023-05-07T03:12:19;13.20;99.90
27376;DHT22;14844;51.302;6.354;2023-05-07T03:14:45;13.20;99.90
27376;DHT22;14844;51.302;6.354;2023-05-07T03:17:10;13.20;99.90
27376;DHT22;14844;51.302;6.354;2023-05-07T03:19:36;13.30;99.90
27376;DHT22;14844;51.302;6.354;2023-05-07T03:22:01;13.40;99.90
27376;DHT22;14844;51.302;6.354;2023-05-07T03:24:27;13.40;99.90
27376;DHT22;14844;51.302;6.354;2023-05-07T03:26:52;13.40;99.90
27376;DHT22;14844;51.302;6.354;2023-05-07T03:29:18;13.40;99.90
27376;DHT22;14844;51.302;6.354;2023-05-07T03:31:43;13.50;99.90
27376;DHT22;14844;51.302;6.354;2023-05-07T03:34:09;13.50;99.90
27376;DHT22;14844;51.302;6.354;2023-05-07T03:36:34;13.50;99.90
27376;DHT22;14844;51.302;6.354;2023-05-07T03:39:00;13.50;99.90
27376;DHT22;14844;51.302;6.354;2023-05-07T03:41:25;13.50;99.90
27376;DHT22;14844;51.302;6.354;2023-05-07T03:43:51;13.60;99.90
27376;DHT22;14844;51.302;6.354;2023-05-07T03:46:16;13.60;99.90
27376;DHT22;14844;51.302;6.354;2023-05-07T03:48:42;13.50;99.90
27376;DHT22;14844;51.302;6.354;2023-05-07T03:51:07;13.50;99.90
27376;DHT22;14844;51.302;6.354;2023-05-07T03:53:33;13.50;99.90
27376;DHT22;14844;51.302;6.354;2023-05-07T03:55:58;13.50;99.90
27376;DHT22;14844;51.302;6.354;2023-05-07T03:58:23;13.50;99.90
27376;DHT22;14844;51.302;6.354;2023-05-07T04:00:49;13.40;99.90
27376;DHT22;14844;51.302;6.354;2023-05-07T04:03:15;13.40;99.90
27376;DHT22;14844;51.302;6.354;2023-05-07T04:05:40;13.40;99.90
27376;DHT22;14844;51.302;6.354;2023-05-07T04:08:06;13.40;99.90
27376;DHT22;14844;51.302;6.354;2023-05-07T04:10:31;13.50;99.90
27376;DHT22;14844;51.302;6.354;2023-05-07T04:12:57;13.50;99.90
27376;DHT22;14844;51.302;6.354;2023-05-07T04:15:23;13.60;99.90
27376;DHT22;14844;51.302;6.354;2023-05-07T04:17:48;13.60;99.90
27376;DHT22;14844;51.302;6.354;2023-05-07T04:20:14;13.60;99.90
27376;DHT22;14844;51.302;6.354;2023-05-07T04:22:40;13.60;99.90
27376;DHT22;14844;51.302;6.354;2023-05-07T04:25:06;13.70;99.90
27376;DHT22;14844;51.302;6.354;2023-05-07T04:27:33;13.70;99.90
27376;DHT22;14844;51.302;6.354;2023-05-07T04:29:58;13.70;99.90
27376;DHT22;14844;51.302;6.354;2023-05-07T04:32:26;13.80;99.90
27376;DHT22;14844;51.302;6.354;2023-05-07T04:34:51;13.80;99.90
27376;DHT22;14844;51.302;6.354;2023-05-07T04:37:17;13.80;99.90
27376;DHT22;14844;51.302;6.354;2023-05-07T04:39:42;13.90;99.90
27376;DHT22;14844;51.302;6.354;2023-05-07T04:42:08;13.90;99.90
27376;DHT22;14844;51.302;6.354;2023-05-07T04:44:34;13.90;99.90
27376;DHT22;14844;51.302;6.354;2023-05-07T04:47:00;14.00;99.90
27376;DHT22;14844;51.302;6.354;2023-05-07T04:49:25;14.00;99.90
27376;DHT22;14844;51.302;6.354;2023-05-07T04:51:51;14.10;99.90
27376;DHT22;14844;51.302;6.354;2023-05-07T04:54:16;14.10;99.90
27376;DHT22;14844;51.302;6.354;2023-05-07T04:56:42;14.20;99.90
27376;DHT22;14844;51.302;6.354;2023-05-07T04:59:07;14.20;99.90
27376;DHT22;14844;51.302;6.354;2023-05-07T05:01:32;14.30;99.90
27376;DHT22;14844;51.302;6.354;2023-05-07T05:03:58;14.40;99.90
27376;DHT22;14844;51.302;6.354;2023-05-07T05:06:25;14.50;99.90
27376;DHT22;14844;51.302;6.354;2023-05-07T05:08:50;14.60;99.90
27376;DHT22;14844;51.302;6.354;2023-05-07T05:11:16;14.70;99.90
27376;DHT22;14844;51.302;6.354;2023-05-07T05:13:41;14.70;99.90
27376;DHT22;14844;51.302;6.354;2023-05-07T05:16:07;14.90;99.90
27376;DHT22;14844;51.302;6.354;2023-05-07T05:18:32;15.00;99.90
27376;DHT22;14844;51.302;6.354;2023-05-07T05:20:58;15.20;99.90
27376;DHT22;14844;51.302;6.354;2023-05-07T05:23:23;15.20;99.90
27376;DHT22;14844;51.302;6.354;2023-05-07T05:25:49;15.30;99.90
27376;DHT22;14844;51.302;6.354;2023-05-07T05:28:14;15.40;99.90
27376;DHT22;14844;51.302;6.354;2023-05-07T05:30:40;15.50;99.90
27376;DHT22;14844;51.302;6.354;2023-05-07T05:33:05;15.60;99.90
27376;DHT22;14844;51.302;6.354;2023-05-07T05:35:31;15.90;99.90
27376;DHT22;14844;51.302;6.354;2023-05-07T05:37:57;16.00;99.90
27376;DHT22;14844;51.302;6.354;2023-05-07T05:40:22;16.20;99.90
27376;DHT22;14844;51.302;6.354;2023-05-07T05:42:47;16.40;99.90
27376;DHT22;14844;51.302;6.354;2023-05-07T05:45:13;16.50;99.90
27376;DHT22;14844;51.302;6.354;2023-05-07T05:47:38;16.60;99.90
27376;DHT22;14844;51.302;6.354;2023-05-07T05:50:05;16.60;99.90
27376;DHT22;14844;51.302;6.354;2023-05-07T05:52:31;16.60;99.90
27376;DHT22;14844;51.302;6.354;2023-05-07T05:54:56;16.60;99.90
27376;DHT22;14844;51.302;6.354;2023-05-07T05:57:22;16.50;99.90
27376;DHT22;14844;51.302;6.354;2023-05-07T05:59:47;16.50;99.90
27376;DHT22;14844;51.302;6.354;2023-05-07T06:02:13;16.50;99.90
27376;DHT22;14844;51.302;6.354;2023-05-07T06:04:38;16.40;99.90
27376;DHT22;14844;51.302;6.354;2023-05-07T06:07:04;16.50;99.90
27376;DHT22;14844;51.302;6.354;2023-05-07T06:09:30;16.60;99.90
27376;DHT22;14844;51.302;6.354;2023-05-07T06:11:55;16.80;99.90
27376;DHT22;14844;51.302;6.354;2023-05-07T06:14:21;17.00;99.90
27376;DHT22;14844;51.302;6.354;2023-05-07T06:16:46;17.20;99.90
27376;DHT22;14844;51.302;6.354;2023-05-07T06:19:12;17.40;99.90
27376;DHT22;14844;51.302;6.354;2023-05-07T06:21:38;17.40;99.90
27376;DHT22;14844;51.302;6.354;2023-05-07T06:24:03;17.50;99.90
27376;DHT22;14844;51.302;6.354;2023-05-07T06:26:29;17.60;99.90
27376;DHT22;14844;51.302;6.354;2023-05-07T06:28:54;17.60;99.90
27376;DHT22;14844;51.302;6.354;2023-05-07T06:31:20;17.70;99.90
27376;DHT22;14844;51.302;6.354;2023-05-07T06:33:45;17.70;99.90
27376;DHT22;14844;51.302;6.354;2023-05-07T06:36:11;17.80;99.90
27376;DHT22;14844;51.302;6.354;2023-05-07T06:38:36;17.80;99.90
27376;DHT22;14844;51.302;6.354;2023-05-07T06:41:02;17.70;99.90
27376;DHT22;14844;51.302;6.354;2023-05-07T06:43:27;17.70;99.90
27376;DHT22;14844;51.302;6.354;2023-05-07T06:45:53;17.70;99.90
27376;DHT22;14844;51.302;6.354;2023-05-07T06:48:18;17.80;99.90
27376;DHT22;14844;51.302;6.354;2023-05-07T06:50:44;18.00;99.90
27376;DHT22;14844;51.302;6.354;2023-05-07T06:53:09;18.10;99.90
27376;DHT22;14844;51.302;6.354;2023-05-07T06:55:35;18.50;99.90
27376;DHT22;14844;51.302;6.354;2023-05-07T06:58:00;18.80;99.90
27376;DHT22;14844;51.302;6.354;2023-05-07T07:00:26;19.20;99.90
27376;DHT22;14844;51.302;6.354;2023-05-07T07:02:52;19.40;99.90
27376;DHT22;14844;51.302;6.354;2023-05-07T07:05:18;19.40;99.90
27376;DHT22;14844;51.302;6.354;2023-05-07T07:07:43;19.40;99.90
27376;DHT22;14844;51.302;6.354;2023-05-07T07:10:09;19.50;99.90
27376;DHT22;14844;51.302;6.354;2023-05-07T07:12:34;19.50;99.90
27376;DHT22;14844;51.302;6.354;2023-05-07T07:15:00;19.60;99.90
27376;DHT22;14844;51.302;6.354;2023-05-07T07:17:25;19.80;99.90
27376;DHT22;14844;51.302;6.354;2023-05-07T07:19:51;19.80;99.90
27376;DHT22;14844;51.302;6.354;2023-05-07T07:22:16;19.90;99.90
27376;DHT22;14844;51.302;6.354;2023-05-07T07:24:42;20.10;99.90
27376;DHT22;14844;51.302;6.354;2023-05-07T07:27:07;20.20;99.90
27376;DHT22;14844;51.302;6.354;2023-05-07T07:29:33;20.40;99.90
27376;DHT22;14844;51.302;6.354;2023-05-07T07:31:59;20.50;99.90
27376;DHT22;14844;51.302;6.354;2023-05-07T07:34:26;20.60;99.90
27376;DHT22;14844;51.302;6.354;2023-05-07T07:36:52;21.00;99.90
27376;DHT22;14844;51.302;6.354;2023-05-07T07:39:17;21.30;99.90
27376;DHT22;14844;51.302;6.354;2023-05-07T07:41:43;21.70;99.90
27376;DHT22;14844;51.302;6.354;2023-05-07T07:44:08;21.90;99.90
27376;DHT22;14844;51.302;6.354;2023-05-07T07:46:38;22.10;99.90
27376;DHT22;14844;51.302;6.354;2023-05-07T07:49:03;22.10;99.90
27376;DHT22;14844;51.302;6.354;2023-05-07T07:51:29;22.10;99.90
27376;DHT22;14844;51.302;6.354;2023-05-07T07:53:55;22.10;99.90
27376;DHT22;14844;51.302;6.354;2023-05-07T07:56:23;22.10;99.90
27376;DHT22;14844;51.302;6.354;2023-05-07T07:58:48;22.20;99.90
27376;DHT22;14844;51.302;6.354;2023-05-07T08:01:13;22.40;99.90
27376;DHT22;14844;51.302;6.354;2023-05-07T08:03:41;22.80;99.90
27376;DHT22;14844;51.302;6.354;2023-05-07T08:06:07;23.00;99.90
27376;DHT22;14844;51.302;6.354;2023-05-07T08:08:32;23.50;99.90
27376;DHT22;14844;51.302;6.354;2023-05-07T08:10:58;23.50;99.90
27376;DHT22;14844;51.302;6.354;2023-05-07T08:13:23;23.70;99.90
27376;DHT22;14844;51.302;6.354;2023-05-07T08:15:49;23.80;99.90
27376;DHT22;14844;51.302;6.354;2023-05-07T08:18:14;23.60;99.90
27376;DHT22;14844;51.302;6.354;2023-05-07T08:20:40;23.40;99.90
27376;DHT22;14844;51.302;6.354;2023-05-07T08:23:06;23.40;99.90
27376;DHT22;14844;51.302;6.354;2023-05-07T08:25:33;23.40;99.90
27376;DHT22;14844;51.302;6.354;2023-05-07T08:27:58;23.80;99.90
27376;DHT22;14844;51.302;6.354;2023-05-07T08:30:24;23.70;99.90
27376;DHT22;14844;51.302;6.354;2023-05-07T08:32:49;23.60;99.90
27376;DHT22;14844;51.302;6.354;2023-05-07T08:35:15;24.00;99.90
27376;DHT22;14844;51.302;6.354;2023-05-07T08:37:40;23.90;99.90
27376;DHT22;14844;51.302;6.354;2023-05-07T08:40:06;24.10;99.90
27376;DHT22;14844;51.302;6.354;2023-05-07T08:42:35;24.20;99.90
27376;DHT22;14844;51.302;6.354;2023-05-07T08:45:02;24.30;99.90
27376;DHT22;14844;51.302;6.354;2023-05-07T08:47:34;24.70;99.90
27376;DHT22;14844;51.302;6.354;2023-05-07T08:50:01;25.40;99.90
27376;DHT22;14844;51.302;6.354;2023-05-07T08:52:27;25.20;99.90
27376;DHT22;14844;51.302;6.354;2023-05-07T08:54:52;25.40;99.90
27376;DHT22;14844;51.302;6.354;2023-05-07T08:57:18;25.20;99.90
27376;DHT22;14844;51.302;6.354;2023-05-07T08:59:45;25.10;99.90
27376;DHT22;14844;51.302;6.354;2023-05-07T09:02:10;24.80;99.90
27376;DHT22;14844;51.302;6.354;2023-05-07T09:04:36;24.60;99.90
27376;DHT22;14844;51.302;6.354;2023-05-07T09:07:02;24.60;99.90
27376;DHT22;14844;51.302;6.354;2023-05-07T09:09:32;24.80;99.90
27376;DHT22;14844;51.302;6.354;2023-05-07T09:11:57;24.90;99.90
27376;DHT22;14844;51.302;6.354;2023-05-07T09:14:25;25.30;99.90
27376;DHT22;14844;51.302;6.354;2023-05-07T09:16:54;25.70;99.90
27376;DHT22;14844;51.302;6.354;2023-05-07T09:19:23;25.80;99.90
27376;DHT22;14844;51.302;6.354;2023-05-07T09:21:49;25.90;99.90
27376;DHT22;14844;51.302;6.354;2023-05-07T09:24:15;26.10;99.90
27376;DHT22;14844;51.302;6.354;2023-05-07T09:26:40;26.10;99.90
27376;DHT22;14844;51.302;6.354;2023-05-07T09:29:06;26.20;99.90
27376;DHT22;14844;51.302;6.354;2023-05-07T09:31:32;26.40;99.90
27376;DHT22;14844;51.302;6.354;2023-05-07T09:33:58;26.60;99.90
27376;DHT22;14844;51.302;6.354;2023-05-07T09:36:24;26.90;99.90
27376;DHT22;14844;51.302;6.354;2023-05-07T09:38:49;27.10;99.90
27376;DHT22;14844;51.302;6.354;2023-05-07T09:41:15;27.10;99.90
27376;DHT22;14844;51.302;6.354;2023-05-07T09:43:41;27.20;99.90
27376;DHT22;14844;51.302;6.354;2023-05-07T09:46:07;26.90;99.90
27376;DHT22;14844;51.302;6.354;2023-05-07T09:48:37;26.50;99.90
27376;DHT22;14844;51.302;6.354;2023-05-07T09:51:03;26.50;99.90
27376;DHT22;14844;51.302;6.354;2023-05-07T09:53:31;26.80;99.90
27376;DHT22;14844;51.302;6.354;2023-05-07T09:55:58;26.80;99.60
27376;DHT22;14844;51.302;6.354;2023-05-07T09:58:25;26.70;99.90
27376;DHT22;14844;51.302;6.354;2023-05-07T10:00:51;26.50;99.90
27376;DHT22;14844;51.302;6.354;2023-05-07T10:03:17;26.20;99.90
27376;DHT22;14844;51.302;6.354;2023-05-07T10:05:44;26.20;99.90
27376;DHT22;14844;51.302;6.354;2023-05-07T10:08:10;26.30;99.90
27376;DHT22;14844;51.302;6.354;2023-05-07T10:10:35;26.30;99.90
27376;DHT22;14844;51.302;6.354;2023-05-07T10:13:02;26.50;99.90
27376;DHT22;14844;51.302;6.354;2023-05-07T10:15:30;26.40;99.30
27376;DHT22;14844;51.302;6.354;2023-05-07T10:17:56;26.70;99.10
27376;DHT22;14844;51.302;6.354;2023-05-07T10:20:22;26.80;99.60
27376;DHT22;14844;51.302;6.354;2023-05-07T10:22:48;26.80;99.10
27376;DHT22;14844;51.302;6.354;2023-05-07T10:25:25;27.00;98.80
27376;DHT22;14844;51.302;6.354;2023-05-07T10:27:51;27.00;98.60
27376;DHT22;14844;51.302;6.354;2023-05-07T10:31:01;27.10;99.20
27376;DHT22;14844;51.302;6.354;2023-05-07T10:33:06;27.30;98.50
27376;DHT22;14844;51.302;6.354;2023-05-07T10:35:41;27.10;98.40
27376;DHT22;14844;51.302;6.354;2023-05-07T10:38:13;27.50;98.30
27376;DHT22;14844;51.302;6.354;2023-05-07T10:40:43;27.70;98.10
27376;DHT22;14844;51.302;6.354;2023-05-07T10:43:09;28.20;97.50
27376;DHT22;14844;51.302;6.354;2023-05-07T10:45:34;28.60;97.10
27376;DHT22;14844;51.302;6.354;2023-05-07T10:48:15;28.60;97.00
27376;DHT22;14844;51.302;6.354;2023-05-07T10:50:41;28.80;96.70
27376;DHT22;14844;51.302;6.354;2023-05-07T10:55:42;28.40;96.50
27376;DHT22;14844;51.302;6.354;2023-05-07T11:00:50;28.50;96.70
27376;DHT22;14844;51.302;6.354;2023-05-07T11:03:16;28.60;96.60
27376;DHT22;14844;51.302;6.354;2023-05-07T11:05:42;28.50;96.40
27376;DHT22;14844;51.302;6.354;2023-05-07T11:08:08;28.80;96.00
27376;DHT22;14844;51.302;6.354;2023-05-07T11:13:14;29.10;94.50
27376;DHT22;14844;51.302;6.354;2023-05-07T11:15:49;29.10;94.10
27376;DHT22;14844;51.302;6.354;2023-05-07T11:18:16;29.30;93.80
27376;DHT22;14844;51.302;6.354;2023-05-07T11:23:12;29.30;93.20
27376;DHT22;14844;51.302;6.354;2023-05-07T11:25:58;29.30;92.20
27376;DHT22;14844;51.302;6.354;2023-05-07T11:28:24;29.50;92.90
27376;DHT22;14844;51.302;6.354;2023-05-07T11:30:49;29.20;92.50
27376;DHT22;14844;51.302;6.354;2023-05-07T11:33:17;28.80;92.40
27376;DHT22;14844;51.302;6.354;2023-05-07T11:35:42;28.90;93.00
27376;DHT22;14844;51.302;6.354;2023-05-07T11:38:08;28.70;93.00
27376;DHT22;14844;51.302;6.354;2023-05-07T11:40:33;28.70;92.30
27376;DHT22;14844;51.302;6.354;2023-05-07T11:42:59;28.90;91.10
27376;DHT22;14844;51.302;6.354;2023-05-07T11:45:35;28.80;92.00
27376;DHT22;14844;51.302;6.354;2023-05-07T11:48:01;28.90;91.40
27376;DHT22;14844;51.302;6.354;2023-05-07T11:50:27;28.90;90.90
27376;DHT22;14844;51.302;6.354;2023-05-07T11:52:52;28.60;89.90
27376;DHT22;14844;51.302;6.354;2023-05-07T11:55:18;28.50;90.40
27376;DHT22;14844;51.302;6.354;2023-05-07T11:57:44;28.00;90.60
27376;DHT22;14844;51.302;6.354;2023-05-07T12:00:10;28.00;91.20
27376;DHT22;14844;51.302;6.354;2023-05-07T12:02:36;28.00;92.30
27376;DHT22;14844;51.302;6.354;2023-05-07T12:05:01;27.90;91.00
27376;DHT22;14844;51.302;6.354;2023-05-07T12:07:27;28.00;91.30
27376;DHT22;14844;51.302;6.354;2023-05-07T12:09:53;28.00;91.70
27376;DHT22;14844;51.302;6.354;2023-05-07T12:12:19;27.90;91.90
27376;DHT22;14844;51.302;6.354;2023-05-07T12:14:44;27.80;92.00
27376;DHT22;14844;51.302;6.354;2023-05-07T12:17:11;27.70;91.60
27376;DHT22;14844;51.302;6.354;2023-05-07T12:19:38;27.40;93.00
27376;DHT22;14844;51.302;6.354;2023-05-07T12:22:04;27.00;93.40
27376;DHT22;14844;51.302;6.354;2023-05-07T12:24:45;26.60;94.20
27376;DHT22;14844;51.302;6.354;2023-05-07T12:27:11;26.50;93.70
27376;DHT22;14844;51.302;6.354;2023-05-07T12:29:37;26.50;93.40
27376;DHT22;14844;51.302;6.354;2023-05-07T12:32:05;26.50;93.60
27376;DHT22;14844;51.302;6.354;2023-05-07T12:34:31;26.40;93.30
27376;DHT22;14844;51.302;6.354;2023-05-07T12:36:57;26.10;93.70
27376;DHT22;14844;51.302;6.354;2023-05-07T12:39:22;26.00;94.10
27376;DHT22;14844;51.302;6.354;2023-05-07T12:41:54;26.00;94.00
27376;DHT22;14844;51.302;6.354;2023-05-07T12:44:24;26.10;93.70
27376;DHT22;14844;51.302;6.354;2023-05-07T12:46:50;26.00;94.10
27376;DHT22;14844;51.302;6.354;2023-05-07T12:49:15;25.90;94.20
27376;DHT22;14844;51.302;6.354;2023-05-07T12:51:41;25.60;94.20
27376;DHT22;14844;51.302;6.354;2023-05-07T12:54:06;25.60;94.20
27376;DHT22;14844;51.302;6.354;2023-05-07T12:56:35;25.40;95.70
27376;DHT22;14844;51.302;6.354;2023-05-07T12:59:00;25.20;95.90
27376;DHT22;14844;51.302;6.354;2023-05-07T13:01:29;25.30;95.20
27376;DHT22;14844;51.302;6.354;2023-05-07T13:03:56;25.10;95.70
27376;DHT22;14844;51.302;6.354;2023-05-07T13:06:21;24.80;95.90
27376;DHT22;14844;51.302;6.354;2023-05-07T13:08:47;24.80;94.80
27376;DHT22;14844;51.302;6.354;2023-05-07T13:11:12;24.70;95.00
27376;DHT22;14844;51.302;6.354;2023-05-07T13:13:38;24.40;96.10
27376;DHT22;14844;51.302;6.354;2023-05-07T13:16:07;24.50;96.80
27376;DHT22;14844;51.302;6.354;2023-05-07T13:18:33;24.60;97.30
27376;DHT22;14844;51.302;6.354;2023-05-07T13:20:59;24.20;97.50
27376;DHT22;14844;51.302;6.354;2023-05-07T13:23:25;23.70;99.00
27376;DHT22;14844;51.302;6.354;2023-05-07T13:25:51;23.30;99.90
27376;DHT22;14844;51.302;6.354;2023-05-07T13:28:19;23.10;99.90
27376;DHT22;14844;51.302;6.354;2023-05-07T13:30:45;22.70;99.90
27376;DHT22;14844;51.302;6.354;2023-05-07T13:33:11;22.40;99.90
27376;DHT22;14844;51.302;6.354;2023-05-07T13:35:36;22.30;99.90
27376;DHT22;14844;51.302;6.354;2023-05-07T13:38:02;22.20;99.90
27376;DHT22;14844;51.302;6.354;2023-05-07T13:40:28;22.20;99.90
27376;DHT22;14844;51.302;6.354;2023-05-07T13:42:57;22.40;99.90
27376;DHT22;14844;51.302;6.354;2023-05-07T13:45:23;22.50;99.90
27376;DHT22;14844;51.302;6.354;2023-05-07T13:47:51;22.70;99.90
27376;DHT22;14844;51.302;6.354;2023-05-07T13:50:16;22.70;99.90
27376;DHT22;14844;51.302;6.354;2023-05-07T13:52:45;22.60;99.90
27376;DHT22;14844;51.302;6.354;2023-05-07T13:55:18;22.60;99.90
27376;DHT22;14844;51.302;6.354;2023-05-07T13:57:47;22.50;99.90
27376;DHT22;14844;51.302;6.354;2023-05-07T14:00:13;22.60;99.90
27376;DHT22;14844;51.302;6.354;2023-05-07T14:02:39;22.70;99.90
27376;DHT22;14844;51.302;6.354;2023-05-07T14:05:05;22.80;99.90
27376;DHT22;14844;51.302;6.354;2023-05-07T14:07:31;22.90;99.90
27376;DHT22;14844;51.302;6.354;2023-05-07T14:09:56;22.90;99.90
27376;DHT22;14844;51.302;6.354;2023-05-07T14:12:22;23.00;99.90
27376;DHT22;14844;51.302;6.354;2023-05-07T14:14:48;23.00;99.90
27376;DHT22;14844;51.302;6.354;2023-05-07T14:17:18;22.80;99.90
27376;DHT22;14844;51.302;6.354;2023-05-07T14:19:44;22.50;99.90
27376;DHT22;14844;51.302;6.354;2023-05-07T14:22:09;22.20;99.90
27376;DHT22;14844;51.302;6.354;2023-05-07T14:24:35;22.00;99.90
27376;DHT22;14844;51.302;6.354;2023-05-07T14:27:00;21.90;99.90
27376;DHT22;14844;51.302;6.354;2023-05-07T14:29:26;21.90;99.90
27376;DHT22;14844;51.302;6.354;2023-05-07T14:31:51;21.90;99.90
27376;DHT22;14844;51.302;6.354;2023-05-07T14:34:17;22.00;99.90
27376;DHT22;14844;51.302;6.354;2023-05-07T14:36:42;22.00;99.90
27376;DHT22;14844;51.302;6.354;2023-05-07T14:39:09;22.20;99.90
27376;DHT22;14844;51.302;6.354;2023-05-07T14:41:34;22.30;99.90
27376;DHT22;14844;51.302;6.354;2023-05-07T14:44:00;22.50;99.90
27376;DHT22;14844;51.302;6.354;2023-05-07T14:46:26;22.60;99.90
27376;DHT22;14844;51.302;6.354;2023-05-07T14:48:52;22.70;99.90
27376;DHT22;14844;51.302;6.354;2023-05-07T14:51:20;23.10;99.90
27376;DHT22;14844;51.302;6.354;2023-05-07T14:53:45;23.50;99.90
27376;DHT22;14844;51.302;6.354;2023-05-07T14:56:11;23.50;99.90
27376;DHT22;14844;51.302;6.354;2023-05-07T14:58:36;23.40;99.90
27376;DHT22;14844;51.302;6.354;2023-05-07T15:01:03;22.50;99.90
27376;DHT22;14844;51.302;6.354;2023-05-07T15:03:28;21.70;99.90
27376;DHT22;14844;51.302;6.354;2023-05-07T15:05:54;21.50;99.90
27376;DHT22;14844;51.302;6.354;2023-05-07T15:08:20;21.30;99.90
27376;DHT22;14844;51.302;6.354;2023-05-07T15:10:45;21.20;99.90
27376;DHT22;14844;51.302;6.354;2023-05-07T15:13:11;21.00;99.90
27376;DHT22;14844;51.302;6.354;2023-05-07T15:15:40;20.90;99.90
27376;DHT22;14844;51.302;6.354;2023-05-07T15:18:06;20.90;99.90
27376;DHT22;14844;51.302;6.354;2023-05-07T15:20:32;21.00;99.90
27376;DHT22;14844;51.302;6.354;2023-05-07T15:22:57;21.10;99.90
27376;DHT22;14844;51.302;6.354;2023-05-07T15:25:23;21.10;99.90
27376;DHT22;14844;51.302;6.354;2023-05-07T15:27:49;21.10;99.90
27376;DHT22;14844;51.302;6.354;2023-05-07T15:30:14;21.00;99.90
27376;DHT22;14844;51.302;6.354;2023-05-07T15:32:40;21.30;99.90
27376;DHT22;14844;51.302;6.354;2023-05-07T15:35:08;21.50;99.90
27376;DHT22;14844;51.302;6.354;2023-05-07T15:37:34;22.10;99.90